Portada
METAR-TAF:

METAR-TAF

Aeropuertos :

Burgos, España

Aeropuerto de Burgos

latitud: 42-22N, longitud: 003-38W, altitud: 894 m

Observación

El informe se hizo hace 10 minutos, a las 22:30 UTC
Viento 13 kt del noreste
Temperatura 14°C
Humedad 88%
Presión 1021 hPa
Visibilidad 10 km o más

METAR: LEBG 222230Z AUTO 04013KT 9999 OVC007/// 14/12 Q1021

Hora: 00:40 (22:40 UTC)

Pronóstico

El informe se hizo hace 5 horas y 40 minutos, a las 17:00 UTC
Pronóstico válido del 22 a las 18 UTC al 23 a las 03 UTC
Viento 12 kt del noreste
Visibilidad 10 km o más
sin nubes por debajo de 1500 m y sin presencia de cumulonimbus.
Temporalmente
del 22 a las 19 UTC al 23 a las 03 UTC
Cielo nuboso a una altura de 800 ft
Probabilidad 30% :
Temporalmente
del 22 a las 22 UTC al 23 a las 03 UTC
Cielo nuboso a una altura de 400 ft

TAF: LEBG 221700Z 2218/2303 04012KT CAVOK TEMPO 2219/2303 BKN008 PROB30 TEMPO 2222/2303 BKN004

Observaciones y pronósticos meteorológicos de más de 4000 aeropuertos (mensajes METAR y TAF).

Los puntos amarillos y rojos representan las estaciones disponibles.

Ponga el ratón en el punto deseado para ver el nombre de la estación.

Haga clic para ver las observaciones y los pronósticos meteorológicos.

Para cambiar el mapa : haga clic en los botones verdes con una cruz de color negro para hacer un zoom, en el botón verde con un guión para alejar o en las flechas verdes para mapas adyacentes.


METAR-TAF: